EW2795 Weather Reports


Display with metric or nautical units.
time (UTC)temp
F
wind
direction
speed
MPH
gust
MPH
rain 1hr
in
rain 24hr
in
rain mn
in
humidity
%
barometer
mb
20200707193332 87 68 3.0 10.0 0.00 0.00 0.00 64 1014.0
20200707190325 87 97 3.0 6.0 0.00 0.00 0.00 64 1014.0
20200707183330 87 97 3.0 6.0 0.00 0.00 0.00 62 1014.3
20200707180331 90 99 3.0 7.0 0.00 0.00 0.00 58 1014.3
20200707173332 90 100 2.0 6.0 0.00 0.00 0.00 59 1014.7
20200707170336 89 101 4.0 5.0 0.00 0.00 0.00 55 1015.5
20200707163324 89 101 1.0 5.0 0.00 0.00 0.00 60 1015.7
20200707160327 88 101 1.0 5.0 0.00 0.00 0.00 58 1015.8
20200707153327 87 101 2.0 5.0 0.00 0.00 0.00 63 1015.8
20200707150330 85 101 3.0 6.0 0.00 0.00 0.00 66 1015.9
20200707143333 84 99 2.0 5.0 0.00 0.00 0.00 68 1015.9
20200707140330 83 99 2.0 5.0 0.00 0.00 0.00 72 1016.0
20200707133331 81 99 3.0 5.0 0.00 0.00 0.00 73 1015.8
20200707130335 79 99 1.0 4.0 0.00 0.00 0.00 75 1015.9
20200707123336 76 99 2.0 3.0 0.00 0.00 0.00 79 1015.7
20200707120329 73 115 0.0 0.0 0.00 0.00 0.00 87 1015.8
20200707113338 71 114 0.0 0.0 0.00 0.00 0.00 88 1015.4
20200707110339 70 115 0.0 0.0 0.00 0.00 0.00 88 1015.4
20200707103329 70 115 0.0 0.0 0.00 0.00 0.00 87 1015.4
20200707100330 71 114 0.0 0.0 0.00 0.00 0.00 86 1015.5
20200707093445 73 115 0.0 0.0 0.00 0.00 0.00 84 1015.3
20200707090326 73 115 0.0 0.0 0.00 0.00 0.00 84 1015.1
20200707083327 72 114 0.0 2.0 0.00 0.00 0.00 88 1015.1
20200707080324 72 114 0.0 0.0 0.00 0.00 0.00 88 1014.8
20200707073329 72 114 0.0 0.0 0.00 0.00 0.00 88 1015.0
20200707070325 72 115 0.0 0.0 0.00 0.00 0.00 87 1015.4
20200707063332 72 115 0.0 0.0 0.00 0.00 0.00 88 1015.4
20200707060332 72 115 0.0 0.0 0.00 0.00 0.00 88 1015.3
20200707053326 73 115 0.0 0.0 0.00 0.00 0.00 88 1015.4
20200707050325 73 114 0.0 0.0 0.00 0.00 0.00 88 1015.7
20200707043322 73 114 0.0 0.0 0.00 0.00 0.00 88 1015.8
20200707040339 74 114 0.0 0.0 0.00 0.00 0.00 87 1015.6
20200707033326 74 114 0.0 0.0 0.00 0.00 0.00 86 1015.5
20200707030320 75 114 0.0 0.0 0.00 0.00 0.00 85 1015.3
20200707023326 76 115 0.0 0.0 0.00 0.00 0.00 83 1015.2
20200707020344 77 115 0.0 0.0 0.00 0.00 0.00 80 1015.1
20200707013329 79 114 0.0 0.0 0.00 0.00 0.00 78 1014.8
20200707010326 81 114 0.0 0.0 0.00 0.00 0.00 74 1014.6
20200707003334 84 114 0.0 0.0 0.00 0.00 0.00 68 1014.5
20200707000340 86 115 1.0 7.0 0.00 0.00 0.00 66 1014.7
20200706233321 87 111 1.0 4.0 0.00 0.00 0.00 62 1014.8
20200706230339 84 111 0.0 0.0 0.00 0.00 0.00 67 1014.6
20200706223325 85 111 1.0 3.0 0.00 0.00 0.00 61 1013.6
20200706220327 88 111 2.0 3.0 0.00 0.00 0.00 58 1014.5
20200706213341 90 105 1.0 2.0 0.00 0.00 0.00 54 1014.7
20200706210338 93 105 1.0 5.0 0.00 0.00 0.00 50 1014.7
20200706203342 93 105 3.0 5.0 0.00 0.00 0.00 40 1015.2
20200706200335 92 105 2.0 4.0 0.00 0.00 0.00 45 1015.3